createdAt,value
2022-08-10T00:00:51.822Z,20.18
2022-08-10T00:01:54.669Z,20.18
2022-08-10T00:02:57.476Z,20.17
2022-08-10T00:04:00.454Z,20.14
2022-08-10T00:05:03.422Z,20.12
2022-08-10T00:06:06.359Z,20.12
2022-08-10T00:07:08.927Z,20.11
2022-08-10T00:08:11.741Z,20.10
2022-08-10T00:09:16.269Z,20.08
2022-08-10T00:10:20.251Z,20.07
2022-08-10T00:11:22.819Z,20.04
2022-08-10T00:12:34.646Z,20.04
2022-08-10T00:13:30.002Z,20.02
2022-08-10T00:14:32.936Z,20.00
2022-08-10T00:15:52.043Z,19.98
2022-08-10T00:16:40.468Z,19.99
2022-08-10T00:17:43.091Z,19.96
2022-08-10T00:18:45.703Z,19.96
2022-08-10T00:20:04.279Z,19.95
2022-08-10T00:20:53.286Z,19.94
2022-08-10T00:21:55.966Z,19.92
2022-08-10T00:22:59.550Z,19.93
2022-08-10T00:24:02.548Z,19.92
2022-08-10T00:25:05.256Z,19.91
2022-08-10T00:26:08.788Z,19.91
2022-08-10T00:27:52.762Z,19.91
2022-08-10T00:28:15.869Z,19.90
2022-08-10T00:29:18.488Z,19.89
2022-08-10T00:30:22.233Z,19.88
2022-08-10T00:31:26.698Z,19.87
2022-08-10T00:32:29.410Z,19.85
2022-08-10T00:33:32.385Z,19.84
2022-08-10T00:34:34.949Z,19.82
2022-08-10T00:35:37.518Z,19.81
2022-08-10T00:36:40.697Z,19.81
2022-08-10T00:37:43.574Z,19.79
2022-08-10T00:38:48.089Z,19.78
2022-08-10T00:39:50.832Z,19.77
2022-08-10T00:40:54.446Z,19.77
2022-08-10T00:42:01.880Z,19.75
2022-08-10T00:43:01.933Z,19.74
2022-08-10T00:44:04.558Z,19.71
2022-08-10T00:45:07.338Z,19.69
2022-08-10T00:46:11.178Z,19.66
2022-08-10T00:47:21.385Z,19.66
2022-08-10T00:48:18.969Z,19.66
2022-08-10T00:49:21.652Z,19.66
2022-08-10T00:50:25.274Z,19.65
2022-08-10T00:51:47.909Z,19.63
2022-08-10T00:52:32.513Z,19.63
2022-08-10T00:53:35.386Z,19.62
2022-08-10T00:54:37.954Z,19.62
2022-08-10T00:57:09.130Z,19.62
2022-08-10T00:57:15.903Z,19.63
2022-08-10T00:57:55.040Z,19.60
2022-08-10T00:58:54.594Z,19.60
2022-08-10T00:59:59.038Z,19.58
2022-08-10T01:01:01.946Z,19.59
2022-08-10T01:02:09.146Z,19.58
2022-08-10T01:03:09.549Z,19.58
2022-08-10T01:04:57.815Z,19.58
2022-08-10T01:05:17.347Z,19.56
2022-08-10T01:06:21.862Z,19.55
2022-08-10T01:07:24.690Z,19.55
2022-08-10T01:08:27.560Z,19.53
2022-08-10T01:09:30.127Z,19.53
2022-08-10T01:10:33.157Z,19.52
2022-08-10T01:12:37.266Z,19.52
2022-08-10T01:12:41.646Z,19.52
2022-08-10T01:13:44.533Z,19.51
2022-08-10T01:14:47.206Z,19.50
2022-08-10T01:15:50.140Z,19.49
2022-08-10T01:16:53.151Z,19.48
2022-08-10T01:17:55.720Z,19.48
2022-08-10T01:18:58.199Z,19.48
2022-08-10T01:20:03.006Z,19.47
2022-08-10T01:21:05.978Z,19.46
2022-08-10T01:22:08.958Z,19.45
2022-08-10T01:23:11.934Z,19.45
2022-08-10T01:24:14.603Z,19.44
2022-08-10T01:25:17.135Z,19.43
2022-08-10T01:26:31.210Z,19.41
2022-08-10T01:27:27.139Z,19.41
2022-08-10T01:28:29.435Z,19.39
2022-08-10T01:29:32.164Z,19.39
2022-08-10T01:30:35.535Z,19.38
2022-08-10T01:31:38.087Z,19.39
2022-08-10T01:32:40.881Z,19.39
2022-08-10T01:33:57.934Z,19.39
2022-08-10T01:34:48.019Z,19.40
2022-08-10T01:35:50.621Z,19.40
2022-08-10T01:36:53.705Z,19.38
2022-08-10T01:37:56.676Z,19.36
2022-08-10T01:38:59.247Z,19.35
2022-08-10T01:40:01.953Z,19.32
2022-08-10T01:41:04.585Z,19.32
2022-08-10T01:42:07.459Z,19.30
2022-08-10T01:43:10.124Z,19.29
2022-08-10T01:44:12.798Z,19.29
2022-08-10T01:45:15.361Z,19.29
2022-08-10T01:46:19.774Z,19.28
2022-08-10T01:47:23.425Z,19.26
2022-08-10T01:48:26.408Z,19.25
2022-08-10T01:49:28.975Z,19.23
2022-08-10T01:50:32.400Z,19.22
2022-08-10T01:51:35.066Z,19.21
2022-08-10T01:52:37.633Z,19.20
2022-08-10T01:53:41.571Z,19.20
2022-08-10T01:54:44.937Z,19.18
2022-08-10T01:55:47.587Z,19.17
2022-08-10T01:56:50.620Z,19.16
2022-08-10T01:57:53.095Z,19.14
2022-08-10T01:58:55.702Z,19.12
2022-08-10T02:00:02.069Z,19.11
2022-08-10T02:01:03.178Z,19.11
2022-08-10T02:02:06.054Z,19.09
2022-08-10T02:03:08.832Z,19.09
2022-08-10T02:04:11.705Z,19.08
2022-08-10T02:05:14.368Z,19.08
2022-08-10T02:06:19.906Z,19.06
2022-08-10T02:07:25.549Z,19.04
2022-08-10T02:08:28.218Z,19.03
2022-08-10T02:09:30.745Z,19.02
2022-08-10T02:10:34.478Z,19.02
2022-08-10T02:12:05.737Z,19.00
2022-08-10T02:12:41.416Z,18.98
2022-08-10T02:13:44.355Z,18.98
2022-08-10T02:14:46.897Z,18.96
2022-08-10T02:16:02.210Z,18.94
2022-08-10T02:16:54.138Z,18.93
2022-08-10T02:17:59.593Z,18.91
2022-08-10T02:19:01.259Z,18.89
2022-08-10T02:20:04.456Z,18.89
2022-08-10T02:21:07.341Z,18.88
2022-08-10T02:22:36.935Z,18.88
2022-08-10T03:15:15.417Z,21.87
2022-08-10T03:16:20.693Z,21.62
2022-08-10T03:17:23.696Z,21.56
2022-08-10T03:18:26.544Z,21.41
2022-08-10T03:20:35.961Z,21.26
2022-08-10T03:20:39.519Z,21.14
2022-08-10T03:21:38.715Z,20.98
2022-08-10T03:22:41.689Z,20.88
2022-08-10T03:23:44.253Z,20.79
2022-08-10T03:24:46.864Z,20.73
2022-08-10T03:25:54.261Z,20.76
2022-08-10T03:26:54.243Z,20.80
2022-08-10T03:27:56.916Z,20.76
2022-08-10T03:28:59.482Z,20.76
2022-08-10T03:30:29.324Z,20.78
2022-08-10T03:31:06.671Z,20.84
2022-08-10T03:32:09.294Z,20.91
2022-08-10T03:33:11.900Z,20.95
2022-08-10T03:34:22.250Z,20.97
2022-08-10T03:35:18.979Z,21.01
2022-08-10T03:36:44.040Z,21.05
2022-08-10T03:37:28.063Z,21.05
2022-08-10T03:38:30.684Z,21.03
2022-08-10T03:39:33.428Z,20.98
2022-08-10T03:40:45.158Z,20.91
2022-08-10T03:41:53.261Z,20.87
2022-08-10T03:42:47.493Z,20.80
2022-08-10T03:43:50.016Z,20.74
2022-08-10T03:44:52.835Z,20.69
2022-08-10T03:45:56.602Z,20.64
2022-08-10T03:46:59.972Z,20.63
2022-08-10T03:48:02.580Z,20.59
2022-08-10T03:49:05.351Z,20.58
2022-08-10T03:50:45.665Z,20.58
2022-08-10T03:51:13.423Z,20.57
2022-08-10T03:52:16.048Z,20.56
2022-08-10T03:53:25.040Z,20.57
2022-08-10T03:54:23.512Z,20.59
2022-08-10T03:56:27.468Z,20.59
2022-08-10T03:56:32.232Z,20.60
2022-08-10T03:57:35.847Z,20.58
2022-08-10T03:58:40.436Z,20.59
2022-08-10T03:59:43.110Z,20.61
2022-08-10T04:00:46.419Z,20.59
2022-08-10T04:02:45.982Z,20.63
2022-08-10T04:02:54.560Z,20.64
2022-08-10T04:04:11.485Z,20.70
2022-08-10T04:05:02.019Z,20.75
2022-08-10T04:06:04.962Z,20.82
2022-08-10T04:07:07.624Z,20.88
2022-08-10T04:08:10.192Z,20.94
2022-08-10T04:09:12.633Z,21.02
2022-08-10T04:10:16.863Z,21.10
2022-08-10T04:11:19.844Z,21.16
2022-08-10T04:12:22.518Z,21.24
2022-08-10T04:13:25.286Z,21.30
2022-08-10T04:14:38.073Z,21.36
2022-08-10T04:15:32.360Z,21.40
2022-08-10T04:16:35.410Z,21.45
2022-08-10T04:18:02.575Z,21.51
2022-08-10T04:18:42.624Z,21.55
2022-08-10T04:19:45.147Z,21.59
2022-08-10T04:20:48.173Z,21.64
2022-08-10T04:21:50.893Z,21.62
2022-08-10T04:22:53.695Z,21.66
2022-08-10T04:23:56.789Z,21.66
2022-08-10T04:24:59.438Z,21.72
2022-08-10T04:26:02.125Z,21.74
2022-08-10T04:27:04.755Z,21.79
2022-08-10T04:28:07.476Z,21.84
2022-08-10T04:29:10.236Z,21.89
2022-08-10T04:30:13.731Z,21.92
2022-08-10T04:31:16.397Z,21.90
2022-08-10T04:32:19.063Z,21.93
2022-08-10T04:33:21.732Z,21.97
2022-08-10T04:34:24.404Z,22.00
2022-08-10T04:35:26.969Z,22.06
2022-08-10T04:36:31.281Z,22.12
2022-08-10T04:37:33.953Z,22.17
2022-08-10T04:38:36.820Z,22.19
2022-08-10T04:39:39.948Z,22.19
2022-08-10T04:40:42.951Z,22.24
2022-08-10T04:41:47.291Z,22.30
2022-08-10T04:42:50.325Z,22.32
2022-08-10T04:43:52.926Z,22.33
2022-08-10T04:44:55.706Z,22.38
2022-08-10T04:45:58.377Z,22.47
2022-08-10T04:47:01.967Z,22.54
2022-08-10T04:48:04.938Z,22.58
2022-08-10T04:49:32.416Z,22.62
2022-08-10T04:50:14.062Z,22.69
2022-08-10T04:51:19.330Z,22.71
2022-08-10T04:52:22.020Z,22.75
2022-08-10T04:53:26.433Z,22.81
2022-08-10T04:54:29.920Z,22.85
2022-08-10T04:55:32.836Z,22.91
2022-08-10T04:56:36.342Z,22.96
2022-08-10T04:57:39.104Z,22.99
2022-08-10T04:58:41.764Z,23.04
2022-08-10T04:59:44.342Z,23.11
2022-08-10T05:00:47.477Z,23.17
2022-08-10T05:02:30.754Z,23.24
2022-08-10T05:02:54.900Z,23.33
2022-08-10T05:04:37.153Z,23.35
2022-08-10T05:05:01.980Z,23.37
2022-08-10T05:06:04.709Z,23.43
2022-08-10T05:07:07.932Z,23.50
2022-08-10T05:08:10.501Z,23.54
2022-08-10T05:09:13.269Z,23.56
2022-08-10T05:10:17.575Z,23.61
2022-08-10T05:11:24.077Z,23.71
2022-08-10T05:12:24.556Z,23.81
2022-08-10T05:13:27.125Z,23.93
2022-08-10T05:14:29.648Z,24.06
2022-08-10T05:15:32.269Z,24.13
2022-08-10T05:16:35.130Z,24.22
2022-08-10T05:18:47.741Z,24.59
2022-08-10T05:20:04.639Z,24.60
2022-08-10T05:20:54.920Z,24.72
2022-08-10T05:22:04.207Z,24.88
2022-08-10T05:23:02.719Z,24.99
2022-08-10T05:24:05.385Z,25.03
2022-08-10T05:25:08.006Z,25.05
2022-08-10T05:26:11.236Z,25.14
2022-08-10T05:27:13.905Z,25.19
2022-08-10T05:28:16.472Z,25.27
2022-08-10T05:29:19.176Z,25.29
2022-08-10T05:30:22.427Z,25.47
2022-08-10T05:31:24.994Z,25.61
2022-08-10T05:32:27.493Z,25.70
2022-08-10T05:33:29.999Z,25.79
2022-08-10T05:35:57.822Z,26.17
2022-08-10T05:36:55.962Z,26.19
2022-08-10T05:38:12.733Z,26.28
2022-08-10T05:39:03.050Z,26.32
2022-08-10T05:40:06.147Z,26.40
2022-08-10T05:41:08.780Z,26.47
2022-08-10T05:42:11.448Z,26.50
2022-08-10T05:43:14.657Z,26.50
2022-08-10T05:44:18.836Z,26.69
2022-08-10T05:45:21.320Z,26.85
2022-08-10T05:46:24.543Z,27.06
2022-08-10T05:47:27.257Z,27.24
2022-08-10T05:48:55.572Z,27.31
2022-08-10T05:49:36.387Z,27.41
2022-08-10T05:50:39.255Z,27.47
2022-08-10T05:51:41.826Z,27.55
2022-08-10T05:52:44.904Z,27.36
2022-08-10T05:54:00.824Z,27.52
2022-08-10T05:54:52.393Z,27.58
2022-08-10T05:55:55.023Z,27.69
2022-08-10T05:56:58.484Z,27.68
2022-08-10T05:58:01.316Z,27.82
2022-08-10T05:59:03.985Z,27.84
2022-08-10T06:00:30.944Z,27.96
2022-08-10T06:01:11.818Z,28.00
2022-08-10T06:02:31.310Z,28.04
2022-08-10T06:03:24.151Z,28.17
2022-08-10T06:04:25.538Z,28.26
2022-08-10T06:05:28.150Z,28.36
2022-08-10T06:06:30.969Z,28.45
2022-08-10T06:07:33.642Z,28.55
2022-08-10T06:08:36.312Z,28.66
2022-08-10T06:09:38.977Z,28.73
2022-08-10T06:12:16.744Z,28.72
2022-08-10T06:12:26.025Z,28.79
2022-08-10T06:12:56.614Z,28.87
2022-08-10T06:14:12.953Z,28.90
2022-08-10T06:15:05.130Z,28.91
2022-08-10T06:16:07.279Z,28.97
2022-08-10T06:17:10.252Z,29.02
2022-08-10T06:18:12.820Z,29.16
2022-08-10T06:19:15.514Z,29.14
2022-08-10T06:20:19.388Z,29.14
2022-08-10T06:21:22.464Z,29.24
2022-08-10T06:22:25.136Z,29.29
2022-08-10T06:23:27.805Z,29.37
2022-08-10T06:24:30.930Z,29.39
2022-08-10T06:26:40.111Z,29.51
2022-08-10T06:27:42.784Z,29.51
2022-08-10T06:29:02.140Z,29.55
2022-08-10T06:29:49.819Z,29.55
2022-08-10T06:30:52.945Z,29.56
2022-08-10T06:31:55.505Z,29.69
2022-08-10T06:32:58.080Z,29.74
2022-08-10T06:34:00.640Z,29.82
2022-08-10T06:35:03.269Z,29.91
2022-08-10T06:36:06.393Z,30.02
2022-08-10T06:37:09.045Z,30.14
2022-08-10T06:38:12.136Z,30.28
2022-08-10T06:39:32.848Z,30.41
2022-08-10T06:40:21.237Z,30.60
2022-08-10T06:41:24.198Z,30.55
2022-08-10T06:42:29.270Z,30.52
2022-08-10T06:43:32.040Z,30.72
2022-08-10T06:44:34.707Z,30.86
2022-08-10T06:45:38.604Z,30.56
2022-08-10T06:46:44.992Z,30.43
2022-08-10T06:47:45.974Z,30.27
2022-08-10T06:48:48.557Z,30.11
2022-08-10T06:49:51.149Z,30.30
2022-08-10T06:50:59.208Z,30.40
2022-08-10T06:51:58.612Z,30.57
2022-08-10T06:53:01.240Z,30.62
2022-08-10T06:54:04.216Z,30.82
2022-08-10T06:55:08.254Z,31.02
2022-08-10T06:56:13.036Z,31.10
2022-08-10T06:57:18.921Z,31.26
2022-08-10T06:58:20.059Z,31.30
2022-08-10T06:59:24.425Z,31.46
2022-08-10T07:00:33.670Z,31.39
2022-08-10T07:01:32.426Z,31.46
2022-08-10T07:02:35.549Z,31.36
2022-08-10T07:03:38.724Z,31.50
2022-08-10T07:04:41.292Z,31.60
2022-08-10T07:05:46.887Z,31.63
2022-08-10T07:06:48.577Z,31.66
2022-08-10T07:07:51.248Z,31.50
2022-08-10T07:08:53.920Z,31.56
2022-08-10T07:09:56.612Z,31.59
2022-08-10T07:10:59.563Z,31.59
2022-08-10T07:12:07.733Z,31.63
2022-08-10T07:13:06.639Z,31.63
2022-08-10T07:14:17.316Z,31.72
2022-08-10T07:15:13.578Z,31.85
2022-08-10T07:16:16.596Z,31.99
2022-08-10T07:17:19.124Z,32.11
2022-08-10T07:18:21.736Z,32.29
2022-08-10T07:19:24.298Z,32.40
2022-08-10T07:20:28.191Z,32.60
2022-08-10T07:21:31.169Z,32.62
2022-08-10T07:23:08.193Z,32.75
2022-08-10T07:23:56.906Z,32.73
2022-08-10T07:24:42.868Z,32.69
2022-08-10T07:25:45.423Z,32.46
2022-08-10T07:26:48.160Z,32.62
2022-08-10T07:27:59.542Z,32.90
2022-08-10T07:28:55.276Z,33.13
2022-08-10T07:29:57.845Z,33.23
2022-08-10T07:31:00.878Z,32.98
2022-08-10T07:32:03.492Z,33.03
2022-08-10T07:33:06.366Z,33.20
2022-08-10T07:34:09.033Z,33.38
2022-08-10T07:35:11.705Z,33.09
2022-08-10T07:36:16.010Z,33.02
2022-08-10T07:37:18.885Z,32.57
2022-08-10T07:38:21.458Z,32.90
2022-08-10T07:40:03.754Z,33.10
2022-08-10T07:40:29.296Z,33.23
2022-08-10T07:41:32.331Z,33.28
2022-08-10T07:42:35.168Z,33.31
2022-08-10T07:43:38.280Z,33.25
2022-08-10T07:44:40.879Z,33.10
2022-08-10T07:45:43.554Z,33.28
2022-08-10T07:46:46.185Z,33.43
2022-08-10T07:47:53.558Z,33.62
2022-08-10T07:48:53.015Z,33.67
2022-08-10T07:49:55.864Z,33.94
2022-08-10T07:50:58.703Z,34.13
2022-08-10T07:52:01.270Z,34.38
2022-08-10T07:53:04.469Z,34.56
2022-08-10T07:54:07.622Z,34.58
2022-08-10T07:55:10.606Z,34.57
2022-08-10T07:56:32.241Z,34.57
2022-08-10T07:57:31.926Z,34.68
2022-08-10T07:58:23.220Z,34.84
2022-08-10T07:59:25.835Z,35.00
2022-08-10T08:00:29.202Z,35.01
2022-08-10T08:01:31.923Z,34.68
2022-08-10T08:02:35.862Z,34.63
2022-08-10T08:03:38.921Z,34.84
2022-08-10T08:04:41.521Z,34.72
2022-08-10T08:05:58.663Z,34.87
2022-08-10T08:06:48.880Z,34.82
2022-08-10T08:07:51.341Z,34.61
2022-08-10T08:08:53.869Z,34.57
2022-08-10T08:09:58.113Z,34.28
2022-08-10T08:11:01.072Z,34.34
2022-08-10T08:12:03.603Z,34.66
2022-08-10T08:13:06.185Z,34.82
2022-08-10T08:14:08.756Z,34.98
2022-08-10T08:16:19.323Z,35.24
2022-08-10T08:16:19.677Z,35.06
2022-08-10T08:17:21.206Z,35.40
2022-08-10T08:18:25.746Z,35.51
2022-08-10T08:19:37.081Z,35.66
2022-08-10T08:20:33.508Z,35.79
2022-08-10T08:24:04.978Z,35.82
2022-08-10T08:24:07.519Z,35.71
2022-08-10T08:24:08.725Z,35.71
2022-08-10T08:24:52.226Z,35.55
2022-08-10T08:25:55.353Z,35.40
2022-08-10T08:26:58.433Z,35.35
2022-08-10T08:28:01.101Z,35.38
2022-08-10T08:29:04.867Z,35.40
2022-08-10T08:30:08.149Z,35.25
2022-08-10T08:31:10.818Z,35.18
2022-08-10T08:32:13.423Z,35.29
2022-08-10T08:33:19.755Z,35.24
2022-08-10T08:34:20.701Z,35.22
2022-08-10T08:35:23.275Z,35.17
2022-08-10T08:36:26.294Z,35.14
2022-08-10T08:38:31.321Z,35.12
2022-08-10T08:38:34.867Z,35.00
2022-08-10T08:39:37.901Z,34.88
2022-08-10T08:40:40.772Z,34.56
2022-08-10T08:41:43.487Z,34.50
2022-08-10T08:42:46.161Z,34.35
2022-08-10T08:43:48.821Z,34.25
2022-08-10T08:44:51.392Z,34.21
2022-08-10T08:46:01.666Z,34.14
2022-08-10T08:46:59.606Z,34.05
2022-08-10T08:48:05.651Z,34.21
2022-08-10T08:49:07.350Z,34.52
2022-08-10T08:50:11.185Z,34.63
2022-08-10T08:51:13.962Z,34.78
2022-08-10T08:52:18.920Z,35.03
2022-08-10T08:53:22.663Z,35.38
2022-08-10T08:54:25.552Z,35.63
2022-08-10T08:56:05.078Z,35.80
2022-08-10T08:56:33.037Z,35.74
2022-08-10T08:57:50.162Z,35.71
2022-08-10T08:58:39.976Z,36.00
2022-08-10T08:59:42.581Z,36.26
2022-08-10T09:00:45.711Z,36.13
2022-08-10T09:01:48.573Z,36.11
2022-08-10T09:02:54.820Z,36.02
2022-08-10T09:03:55.833Z,35.96
2022-08-10T09:04:58.497Z,36.07
2022-08-10T09:06:01.058Z,36.34
2022-08-10T09:07:03.849Z,36.57
2022-08-10T09:08:06.500Z,36.61
2022-08-10T09:09:09.166Z,36.62
2022-08-10T09:10:15.432Z,36.69
2022-08-10T09:11:18.298Z,36.64
2022-08-10T09:12:21.004Z,36.43
2022-08-10T09:13:23.546Z,36.14
2022-08-10T09:14:26.303Z,36.17
2022-08-10T09:15:40.510Z,36.18
2022-08-10T09:16:35.230Z,36.19
2022-08-10T09:17:38.100Z,36.20
2022-08-10T09:18:40.869Z,36.30
2022-08-10T09:19:43.435Z,36.37
2022-08-10T09:20:46.211Z,36.17
2022-08-10T09:22:13.220Z,36.04
2022-08-10T09:22:57.407Z,35.78
2022-08-10T09:24:05.449Z,35.88
2022-08-10T09:25:02.742Z,36.05
2022-08-10T09:26:05.697Z,36.22
2022-08-10T09:27:08.168Z,36.21
2022-08-10T09:28:11.004Z,36.18
2022-08-10T09:29:13.730Z,36.24
2022-08-10T09:30:17.609Z,36.27
2022-08-10T09:31:22.329Z,36.15
2022-08-10T09:36:16.527Z,36.10
2022-08-10T09:36:22.956Z,35.84
2022-08-10T09:36:24.061Z,36.16
2022-08-10T09:36:24.401Z,36.00
2022-08-10T09:36:43.044Z,36.18
2022-08-10T09:38:02.207Z,36.20
2022-08-10T09:38:49.881Z,36.17
2022-08-10T09:40:48.483Z,36.10
2022-08-10T09:41:04.057Z,36.07
2022-08-10T09:42:01.875Z,36.10
2022-08-10T09:43:25.553Z,35.99
2022-08-10T09:44:09.203Z,35.90
2022-08-10T09:45:12.180Z,35.82
2022-08-10T09:46:15.561Z,35.63
2022-08-10T09:47:18.132Z,35.55
2022-08-10T09:48:20.758Z,35.56
2022-08-10T09:49:52.893Z,35.57
2022-08-10T09:50:50.078Z,35.73
2022-08-10T09:51:45.376Z,35.82
2022-08-10T09:52:38.440Z,35.85
2022-08-10T09:53:41.221Z,35.90
2022-08-10T09:54:43.885Z,35.92
2022-08-10T09:56:17.303Z,35.94
2022-08-10T09:56:51.670Z,35.64
2022-08-10T09:57:55.033Z,35.35
2022-08-10T09:59:29.203Z,35.65
2022-08-10T10:00:03.960Z,35.67
2022-08-10T10:01:06.653Z,35.94
2022-08-10T10:02:11.170Z,36.26
2022-08-10T10:03:13.777Z,36.40
2022-08-10T10:04:18.101Z,36.66
2022-08-10T10:05:20.669Z,36.95
2022-08-10T10:06:24.304Z,37.13
2022-08-10T10:07:27.023Z,37.22
2022-08-10T10:08:29.910Z,37.37
2022-08-10T10:09:32.518Z,37.32
2022-08-10T10:10:35.289Z,36.92
2022-08-10T10:11:38.530Z,36.59
2022-08-10T10:12:41.505Z,36.67
2022-08-10T10:14:02.112Z,36.81
2022-08-10T10:14:48.634Z,36.73
2022-08-10T10:15:51.392Z,36.66
2022-08-10T10:16:54.274Z,36.59
2022-08-10T10:17:57.062Z,36.55
2022-08-10T10:18:59.715Z,36.27
2022-08-10T10:20:02.710Z,35.90
2022-08-10T10:21:05.382Z,35.96
2022-08-10T10:22:07.986Z,36.04
2022-08-10T10:23:10.699Z,35.90
2022-08-10T10:24:21.291Z,35.84
2022-08-10T10:25:21.002Z,35.94
2022-08-10T10:26:23.622Z,35.96
2022-08-10T10:27:26.203Z,35.95
2022-08-10T10:28:44.446Z,36.04
2022-08-10T10:29:57.587Z,36.16
2022-08-10T10:30:38.293Z,36.38
2022-08-10T10:31:41.275Z,36.31
2022-08-10T10:32:44.138Z,36.16
2022-08-10T10:33:46.915Z,36.30
2022-08-10T10:34:51.326Z,36.41
2022-08-10T10:35:53.896Z,36.37
2022-08-10T10:36:57.072Z,36.63
2022-08-10T10:38:02.235Z,36.83
2022-08-10T10:39:04.254Z,37.01
2022-08-10T10:40:07.230Z,37.22
2022-08-10T10:41:09.902Z,37.36
2022-08-10T10:42:34.962Z,37.33
2022-08-10T10:43:17.796Z,37.33
2022-08-10T10:44:20.577Z,37.39
2022-08-10T10:45:25.087Z,37.42
2022-08-10T10:46:28.482Z,37.37
2022-08-10T10:47:30.997Z,37.21
2022-08-10T10:48:33.602Z,36.95
2022-08-10T10:49:36.179Z,36.99
2022-08-10T10:50:39.145Z,37.04
2022-08-10T10:51:41.713Z,37.06
2022-08-10T10:52:44.280Z,37.17
2022-08-10T10:53:46.850Z,37.20
2022-08-10T10:54:49.421Z,37.25
2022-08-10T10:56:14.377Z,37.31
2022-08-10T10:56:56.919Z,36.95
2022-08-10T10:58:01.303Z,37.07
2022-08-10T10:59:16.027Z,37.26
2022-08-10T11:00:09.659Z,37.35
2022-08-10T11:01:12.284Z,37.46
2022-08-10T11:02:16.190Z,37.46
2022-08-10T11:03:19.167Z,37.53
2022-08-10T11:04:21.734Z,37.52
2022-08-10T11:05:24.521Z,37.63
2022-08-10T11:06:39.771Z,37.84
2022-08-10T11:07:33.752Z,37.68
2022-08-10T11:08:36.850Z,37.66
2022-08-10T11:10:08.750Z,37.30
2022-08-10T11:10:47.339Z,37.44
2022-08-10T11:12:00.687Z,37.37
2022-08-10T11:12:53.124Z,37.57
2022-08-10T11:14:26.650Z,37.04
2022-08-10T11:15:00.516Z,37.27
2022-08-10T11:16:03.693Z,37.17
2022-08-10T11:17:06.157Z,37.12
2022-08-10T11:18:08.841Z,37.03
2022-08-10T11:19:13.396Z,37.19
2022-08-10T11:20:16.925Z,37.44
2022-08-10T11:21:19.601Z,37.76
2022-08-10T11:22:24.112Z,37.82
2022-08-10T11:23:26.781Z,37.35
2022-08-10T11:24:48.124Z,37.10
2022-08-10T11:25:33.978Z,36.80
2022-08-10T11:26:36.889Z,37.05
2022-08-10T11:27:39.557Z,37.29
2022-08-10T11:28:42.274Z,37.27
2022-08-10T11:29:45.778Z,37.42
2022-08-10T11:30:50.068Z,37.61
2022-08-10T11:31:52.631Z,37.77
2022-08-10T11:32:55.200Z,37.84
2022-08-10T11:34:46.324Z,38.17
2022-08-10T11:35:11.652Z,38.44
2022-08-10T11:36:06.749Z,38.67
2022-08-10T11:37:09.362Z,38.92
2022-08-10T11:38:30.351Z,39.25
2022-08-10T11:39:16.744Z,39.51
2022-08-10T11:40:21.466Z,39.13
2022-08-10T11:42:08.838Z,38.77
2022-08-10T11:42:35.885Z,38.01
2022-08-10T11:43:33.715Z,37.90
2022-08-10T11:44:36.339Z,37.22
2022-08-10T11:45:39.126Z,36.75
2022-08-10T11:46:43.852Z,36.58
2022-08-10T11:47:46.496Z,36.92
2022-08-10T11:48:54.022Z,37.30
2022-08-10T11:49:53.638Z,37.65
2022-08-10T11:50:56.450Z,37.88
2022-08-10T11:51:59.023Z,38.06
2022-08-10T11:53:01.647Z,38.20
2022-08-10T11:54:04.277Z,38.24
2022-08-10T11:55:07.131Z,38.24
2022-08-10T11:56:11.091Z,38.42
2022-08-10T11:57:14.034Z,38.75
2022-08-10T11:58:18.851Z,39.06
2022-08-10T11:59:21.756Z,39.27
2022-08-10T12:00:32.473Z,39.27
2022-08-10T12:01:30.210Z,39.42
2022-08-10T12:02:33.556Z,39.25
2022-08-10T12:03:36.548Z,38.64
2022-08-10T12:04:39.402Z,38.68
2022-08-10T12:05:46.789Z,38.70
2022-08-10T12:06:56.055Z,38.88
2022-08-10T12:10:04.849Z,38.76
2022-08-10T12:10:06.757Z,38.12
2022-08-10T12:10:11.562Z,38.72
2022-08-10T12:11:04.883Z,38.46
2022-08-10T12:12:07.458Z,38.52
2022-08-10T12:13:10.326Z,38.77
2022-08-10T12:14:22.265Z,38.57
2022-08-10T12:15:17.302Z,38.70
2022-08-10T12:16:20.794Z,38.75
2022-08-10T12:17:23.646Z,38.84
2022-08-10T12:18:26.439Z,39.00
2022-08-10T12:19:29.141Z,39.17
2022-08-10T12:20:31.996Z,38.96
2022-08-10T12:21:35.386Z,39.09
2022-08-10T12:22:38.269Z,39.00
2022-08-10T12:23:40.985Z,38.81
2022-08-10T12:24:43.735Z,39.00
2022-08-10T12:25:56.664Z,38.94
2022-08-10T12:26:51.064Z,39.23
2022-08-10T12:27:53.730Z,39.39
2022-08-10T12:28:58.097Z,39.38
2022-08-10T12:30:00.711Z,39.38
2022-08-10T12:31:03.273Z,39.45
2022-08-10T12:32:05.861Z,39.41
2022-08-10T12:33:08.411Z,39.22
2022-08-10T12:34:11.081Z,39.29
2022-08-10T12:35:21.897Z,39.42
2022-08-10T12:36:19.397Z,39.45
2022-08-10T12:37:22.052Z,38.84
2022-08-10T12:38:24.620Z,39.11
2022-08-10T12:39:27.224Z,39.00
2022-08-10T12:40:35.536Z,38.75
2022-08-10T12:41:44.663Z,38.78
2022-08-10T12:42:42.086Z,38.85
2022-08-10T12:44:07.667Z,39.13
2022-08-10T12:44:49.344Z,39.34
2022-08-10T12:45:52.113Z,39.52
2022-08-10T12:46:55.706Z,39.38
2022-08-10T12:47:58.395Z,38.65
2022-08-10T12:49:00.943Z,38.09
2022-08-10T12:50:23.835Z,38.23
2022-08-10T12:51:08.121Z,38.28
2022-08-10T12:52:10.789Z,38.13
2022-08-10T12:53:13.362Z,38.16
2022-08-10T12:54:16.235Z,38.14
2022-08-10T12:55:21.012Z,38.05
2022-08-10T12:56:24.732Z,37.83
2022-08-10T12:57:27.518Z,37.56
2022-08-10T12:58:57.355Z,37.09
2022-08-10T12:59:43.137Z,36.72
2022-08-10T13:00:59.600Z,36.44
2022-08-10T13:02:07.928Z,36.44
2022-08-10T13:02:49.425Z,36.20
2022-08-10T13:04:23.181Z,36.05
2022-08-10T13:04:56.649Z,35.97
2022-08-10T13:06:02.667Z,35.84
2022-08-10T13:07:03.934Z,35.61
2022-08-10T13:08:26.694Z,35.47
2022-08-10T13:09:11.011Z,35.33
2022-08-10T13:10:15.220Z,35.28
2022-08-10T13:12:34.040Z,35.23
2022-08-10T13:12:44.564Z,35.12
2022-08-10T13:13:26.563Z,35.09
2022-08-10T13:14:29.172Z,34.92
2022-08-10T13:15:49.069Z,34.84
2022-08-10T13:16:36.511Z,34.98
2022-08-10T13:17:42.708Z,35.12
2022-08-10T13:18:43.601Z,35.05
2022-08-10T13:19:56.415Z,35.23
2022-08-10T13:20:51.127Z,35.29
2022-08-10T13:21:53.894Z,35.46
2022-08-10T13:22:56.618Z,35.53
2022-08-10T13:24:04.106Z,35.23
2022-08-10T13:25:03.545Z,35.18
2022-08-10T13:26:06.474Z,35.43
2022-08-10T13:27:25.554Z,35.72
2022-08-10T13:28:37.235Z,36.00
2022-08-10T13:29:18.006Z,36.29
2022-08-10T13:30:33.883Z,36.60
2022-08-10T13:32:03.693Z,36.86
2022-08-10T13:32:32.182Z,36.98
2022-08-10T13:34:41.415Z,37.12
2022-08-10T13:34:44.989Z,37.10
2022-08-10T13:35:43.841Z,37.36
2022-08-10T13:36:46.507Z,37.51
2022-08-10T13:37:48.945Z,37.10
2022-08-10T13:38:51.565Z,36.68
2022-08-10T13:39:58.830Z,36.36
2022-08-10T13:40:58.797Z,36.47
2022-08-10T13:42:01.511Z,36.37
2022-08-10T13:43:04.490Z,36.21
2022-08-10T13:44:07.142Z,35.95
2022-08-10T13:45:09.827Z,36.03
2022-08-10T13:46:22.116Z,35.80
2022-08-10T13:47:18.035Z,35.58
2022-08-10T13:48:21.007Z,35.50
2022-08-10T13:49:23.578Z,35.31
2022-08-10T13:50:34.880Z,35.44
2022-08-10T13:51:56.575Z,35.66
2022-08-10T13:52:36.832Z,35.53
2022-08-10T13:53:39.609Z,35.47
2022-08-10T13:54:42.361Z,35.46
2022-08-10T13:55:54.052Z,35.40
2022-08-10T13:56:49.868Z,35.24
2022-08-10T13:57:52.361Z,35.01
2022-08-10T13:58:57.127Z,34.84
2022-08-10T14:00:34.596Z,34.75
2022-08-10T14:01:04.241Z,34.62
2022-08-10T14:02:08.839Z,34.64
2022-08-10T14:03:11.792Z,34.56
2022-08-10T14:04:14.319Z,34.51
2022-08-10T14:05:17.132Z,34.48
2022-08-10T14:06:21.013Z,34.35
2022-08-10T14:07:23.598Z,34.26
2022-08-10T14:08:26.174Z,34.09
2022-08-10T14:09:28.733Z,34.12
2022-08-10T14:11:08.763Z,34.22
2022-08-10T14:11:36.996Z,34.22
2022-08-10T14:12:39.565Z,34.31
2022-08-10T14:13:42.437Z,34.37
2022-08-10T14:14:52.883Z,34.52
2022-08-10T14:15:50.661Z,34.59
2022-08-10T14:16:53.523Z,34.55
2022-08-10T14:17:56.437Z,34.44
2022-08-10T14:18:59.166Z,34.25
2022-08-10T14:20:02.632Z,34.17
2022-08-10T14:21:06.745Z,34.04
2022-08-10T14:22:10.552Z,34.03
2022-08-10T14:23:13.277Z,34.09
2022-08-10T14:24:16.275Z,34.08
2022-08-10T14:25:18.868Z,34.09
2022-08-10T14:26:22.455Z,34.09
2022-08-10T14:27:25.072Z,33.99
2022-08-10T14:28:29.680Z,34.03
2022-08-10T14:29:32.351Z,33.86
2022-08-10T14:30:35.281Z,33.74
2022-08-10T14:31:37.894Z,33.62